createdAt,value
2023-05-11T00:00:46.372Z,100.00
2023-05-11T00:03:16.785Z,100.00
2023-05-11T00:05:48.432Z,100.00
2023-05-11T00:08:17.238Z,100.00
2023-05-11T00:10:48.988Z,100.00
2023-05-11T00:13:17.328Z,100.00
2023-05-11T00:15:45.539Z,100.00
2023-05-11T00:18:13.789Z,100.00
2023-05-11T00:20:41.770Z,100.00
2023-05-11T00:23:09.753Z,100.00
2023-05-11T00:25:39.233Z,100.00
2023-05-11T00:28:07.696Z,100.00
2023-05-11T00:30:35.958Z,100.00
2023-05-11T00:33:04.549Z,100.00
2023-05-11T00:35:32.907Z,100.00
2023-05-11T00:38:00.972Z,100.00
2023-05-11T00:40:31.817Z,100.00
2023-05-11T00:43:01.175Z,100.00
2023-05-11T00:45:30.247Z,100.00
2023-05-11T00:47:58.652Z,100.00
2023-05-11T00:50:27.657Z,100.00
2023-05-11T00:52:56.076Z,100.00
2023-05-11T00:55:24.759Z,100.00
2023-05-11T00:57:53.050Z,100.00
2023-05-11T01:00:21.899Z,100.00
2023-05-11T01:02:50.137Z,100.00
2023-05-11T01:05:18.401Z,100.00
2023-05-11T01:08:06.936Z,100.00
2023-05-11T01:10:46.045Z,100.00
2023-05-11T01:13:26.236Z,100.00
2023-05-11T01:15:58.495Z,100.00
2023-05-11T01:18:38.469Z,100.00
2023-05-11T01:21:15.445Z,100.00
2023-05-11T01:24:21.943Z,100.00
2023-05-11T01:27:20.761Z,100.00
2023-05-11T01:30:26.256Z,100.00
2023-05-11T01:32:58.153Z,100.00
2023-05-11T01:35:29.027Z,100.00
2023-05-11T01:37:59.954Z,100.00
2023-05-11T01:40:32.153Z,100.00
2023-05-11T01:43:03.957Z,100.00
2023-05-11T01:45:37.062Z,100.00
2023-05-11T01:48:12.024Z,100.00
2023-05-11T01:50:41.243Z,100.00
2023-05-11T01:53:12.320Z,100.00
2023-05-11T01:55:42.417Z,100.00
2023-05-11T01:58:13.357Z,100.00
2023-05-11T02:00:43.375Z,100.00
2023-05-11T02:03:14.211Z,100.00
2023-05-11T02:05:43.925Z,100.00
2023-05-11T02:08:14.103Z,100.00
2023-05-11T02:10:42.712Z,100.00
2023-05-11T02:13:15.838Z,100.00
2023-05-11T02:15:45.681Z,100.00
2023-05-11T02:18:16.238Z,100.00
2023-05-11T02:20:47.439Z,100.00
2023-05-11T02:23:17.541Z,100.00
2023-05-11T02:25:49.931Z,100.00
2023-05-11T02:28:19.171Z,100.00
2023-05-11T02:30:50.342Z,100.00
2023-05-11T02:33:24.350Z,100.00
2023-05-11T02:35:55.923Z,100.00
2023-05-11T02:38:30.838Z,100.00
2023-05-11T02:41:02.182Z,100.00
2023-05-11T02:43:35.613Z,100.00
2023-05-11T02:46:07.052Z,100.00
2023-05-11T02:48:41.311Z,100.00
2023-05-11T02:51:12.968Z,100.00
2023-05-11T02:53:47.369Z,100.00
2023-05-11T02:56:16.046Z,100.00
2023-05-11T02:58:44.460Z,100.00
2023-05-11T03:01:20.027Z,100.00
2023-05-11T03:03:48.613Z,100.00
2023-05-11T03:06:16.818Z,100.00
2023-05-11T03:08:45.218Z,100.00
2023-05-11T03:11:15.529Z,100.00
2023-05-11T03:13:45.651Z,100.00
2023-05-11T03:16:15.890Z,100.00
2023-05-11T03:18:45.036Z,100.00
2023-05-11T03:21:16.750Z,100.00
2023-05-11T03:23:46.144Z,100.00
2023-05-11T03:26:18.815Z,100.00
2023-05-11T03:28:48.956Z,100.00
2023-05-11T03:31:19.002Z,100.00
2023-05-11T03:33:47.190Z,100.00
2023-05-11T03:36:16.113Z,100.00
2023-05-11T03:38:47.490Z,100.00
2023-05-11T03:41:18.305Z,100.00
2023-05-11T03:43:51.918Z,100.00
2023-05-11T03:46:23.008Z,100.00
2023-05-11T03:48:51.723Z,100.00
2023-05-11T03:51:23.064Z,100.00
2023-05-11T03:53:51.260Z,100.00
2023-05-11T03:56:19.960Z,100.00
2023-05-11T03:58:48.995Z,100.00
2023-05-11T04:01:17.098Z,100.00
2023-05-11T04:03:52.858Z,100.00
2023-05-11T04:06:22.464Z,100.00
2023-05-11T04:09:20.311Z,100.00
2023-05-11T04:11:48.951Z,100.00
2023-05-11T04:14:18.228Z,100.00
2023-05-11T04:16:46.783Z,100.00
2023-05-11T04:19:16.404Z,100.00
2023-05-11T04:21:44.490Z,100.00
2023-05-11T04:24:12.952Z,100.00
2023-05-11T04:26:41.580Z,100.00
2023-05-11T04:29:12.234Z,100.00
2023-05-11T04:31:41.086Z,100.00
2023-05-11T04:34:10.863Z,100.00
2023-05-11T04:36:39.524Z,100.00
2023-05-11T04:39:08.007Z,100.00
2023-05-11T04:41:38.053Z,100.00
2023-05-11T04:44:07.016Z,100.00
2023-05-11T04:46:35.914Z,100.00
2023-05-11T04:49:06.091Z,100.00
2023-05-11T04:51:34.547Z,100.00
2023-05-11T04:54:02.500Z,100.00
2023-05-11T04:56:30.559Z,100.00
2023-05-11T04:58:58.968Z,100.00
2023-05-11T05:01:28.140Z,100.00
2023-05-11T05:03:57.128Z,100.00
2023-05-11T05:06:28.173Z,100.00
2023-05-11T05:08:56.297Z,100.00
2023-05-11T05:11:24.317Z,100.00
2023-05-11T05:13:52.317Z,100.00
2023-05-11T05:16:21.383Z,100.00
2023-05-11T05:18:49.857Z,100.00
2023-05-11T05:21:19.866Z,100.00
2023-05-11T05:23:49.386Z,100.00
2023-05-11T05:26:17.528Z,100.00
2023-05-11T05:28:47.034Z,100.00
2023-05-11T05:31:15.825Z,100.00
2023-05-11T05:33:44.150Z,100.00
2023-05-11T05:36:12.440Z,100.00
2023-05-11T05:38:41.076Z,100.00
2023-05-11T05:41:09.277Z,100.00
2023-05-11T05:43:40.439Z,100.00
2023-05-11T05:46:08.782Z,100.00
2023-05-11T05:48:37.613Z,100.00
2023-05-11T05:51:05.757Z,100.00
2023-05-11T05:53:35.116Z,100.00
2023-05-11T05:56:04.616Z,100.00
2023-05-11T05:58:32.795Z,100.00
2023-05-11T06:01:04.503Z,100.00
2023-05-11T06:03:35.173Z,100.00
2023-05-11T06:06:06.951Z,100.00
2023-05-11T06:08:34.973Z,100.00
2023-05-11T06:11:03.370Z,100.00
2023-05-11T06:13:40.870Z,100.00
2023-05-11T06:16:08.933Z,100.00
2023-05-11T06:18:37.027Z,100.00
2023-05-11T06:21:06.977Z,100.00
2023-05-11T06:23:35.814Z,100.00
2023-05-11T06:26:04.335Z,100.00
2023-05-11T06:28:33.679Z,100.00
2023-05-11T06:31:05.129Z,100.00
2023-05-11T06:33:36.764Z,100.00
2023-05-11T06:36:07.730Z,100.00
2023-05-11T06:38:36.768Z,100.00
2023-05-11T06:41:07.972Z,100.00
2023-05-11T06:43:38.241Z,100.00
2023-05-11T06:46:07.267Z,100.00
2023-05-11T06:48:36.313Z,100.00
2023-05-11T06:51:05.197Z,100.00
2023-05-11T06:53:34.374Z,100.00
2023-05-11T06:56:03.944Z,100.00
2023-05-11T06:58:32.806Z,99.80
2023-05-11T07:01:02.451Z,97.42
2023-05-11T07:03:34.775Z,96.18
2023-05-11T07:06:03.598Z,99.79
2023-05-11T07:08:31.912Z,99.18
2023-05-11T07:11:00.641Z,97.08
2023-05-11T07:13:29.892Z,94.18
2023-05-11T07:15:58.016Z,94.32
2023-05-11T07:18:27.137Z,93.23
2023-05-11T07:20:55.872Z,92.83
2023-05-11T07:23:28.472Z,90.65
2023-05-11T07:25:58.462Z,87.85
2023-05-11T07:28:26.692Z,88.51
2023-05-11T07:31:00.160Z,87.00
2023-05-11T07:33:28.318Z,84.01
2023-05-11T07:35:58.800Z,81.61
2023-05-11T07:38:27.940Z,80.11
2023-05-11T07:40:56.505Z,77.29
2023-05-11T07:43:26.805Z,76.02
2023-05-11T07:45:55.832Z,71.89
2023-05-11T07:48:25.542Z,74.09
2023-05-11T07:50:56.421Z,75.32
2023-05-11T07:53:24.788Z,75.04
2023-05-11T07:55:53.954Z,71.52
2023-05-11T07:58:23.640Z,71.52
2023-05-11T08:00:52.722Z,70.61
2023-05-11T08:03:21.000Z,70.55
2023-05-11T08:05:52.413Z,71.33
2023-05-11T08:08:21.705Z,70.80
2023-05-11T08:10:51.505Z,70.68
2023-05-11T08:13:22.228Z,71.00
2023-05-11T08:15:57.022Z,71.85
2023-05-11T08:18:26.168Z,72.04
2023-05-11T08:20:55.028Z,71.89
2023-05-11T08:23:23.924Z,71.19
2023-05-11T08:25:53.962Z,72.03
2023-05-11T08:28:23.043Z,68.92
2023-05-11T08:30:59.404Z,66.04
2023-05-11T08:36:13.295Z,59.75
2023-05-11T08:41:37.626Z,57.00
2023-05-11T08:44:21.283Z,57.38
2023-05-11T08:47:05.939Z,55.09
2023-05-11T08:49:46.706Z,53.99
2023-05-11T08:52:20.799Z,54.12
2023-05-11T08:54:53.421Z,52.80
2023-05-11T08:57:33.048Z,51.69
2023-05-11T09:00:07.789Z,52.23
2023-05-11T09:02:40.226Z,52.17
2023-05-11T09:05:28.360Z,50.52
2023-05-11T09:08:05.542Z,49.99
2023-05-11T09:10:36.814Z,48.54
2023-05-11T09:13:05.959Z,46.76
2023-05-11T09:15:37.819Z,46.73
2023-05-11T09:18:08.027Z,46.15
2023-05-11T09:20:36.815Z,47.01
2023-05-11T09:23:07.616Z,46.48
2023-05-11T09:25:39.907Z,46.35
2023-05-11T09:28:15.751Z,45.26
2023-05-11T09:30:44.963Z,44.25
2023-05-11T09:33:23.678Z,44.35
2023-05-11T09:35:52.873Z,44.45
2023-05-11T09:38:23.237Z,43.65
2023-05-11T09:40:57.102Z,41.97
2023-05-11T09:43:28.298Z,41.64
2023-05-11T09:46:03.616Z,40.67
2023-05-11T09:48:38.301Z,39.08
2023-05-11T09:51:29.636Z,38.70
2023-05-11T09:54:57.153Z,39.39
2023-05-11T09:57:34.255Z,39.56
2023-05-11T10:00:16.160Z,39.18
2023-05-11T10:03:06.152Z,38.98
2023-05-11T10:05:36.725Z,37.95
2023-05-11T10:08:06.317Z,38.34
2023-05-11T10:10:35.031Z,39.23
2023-05-11T10:13:04.632Z,39.05
2023-05-11T10:15:35.954Z,38.99
2023-05-11T10:18:04.767Z,38.71
2023-05-11T10:20:42.742Z,38.61
2023-05-11T10:23:17.805Z,37.71
2023-05-11T10:25:49.333Z,37.14
2023-05-11T10:28:18.317Z,36.13
2023-05-11T10:30:49.018Z,35.98
2023-05-11T10:33:18.435Z,36.28
2023-05-11T10:35:46.941Z,36.81
2023-05-11T10:38:16.580Z,36.47
2023-05-11T10:40:47.098Z,35.81
2023-05-11T10:43:23.761Z,35.28
2023-05-11T10:46:19.196Z,35.18
2023-05-11T10:49:13.006Z,35.29
2023-05-11T10:52:09.763Z,35.88
2023-05-11T10:54:47.302Z,35.97
2023-05-11T10:57:36.058Z,36.33
2023-05-11T11:00:21.068Z,36.11
2023-05-11T11:02:51.401Z,36.29
2023-05-11T11:05:36.717Z,36.69
2023-05-11T11:08:09.687Z,36.71
2023-05-11T11:10:44.212Z,36.92
2023-05-11T11:13:14.828Z,36.89
2023-05-11T11:15:54.508Z,37.44
2023-05-11T11:18:29.318Z,37.84
2023-05-11T11:20:59.792Z,37.47
2023-05-11T11:23:41.604Z,36.09
2023-05-11T11:26:17.187Z,35.69
2023-05-11T11:28:57.317Z,35.71
2023-05-11T11:31:39.096Z,36.30
2023-05-11T11:34:30.065Z,36.62
2023-05-11T11:36:59.083Z,36.55
2023-05-11T11:39:30.645Z,36.54
2023-05-11T11:42:05.552Z,36.55
2023-05-11T11:44:40.322Z,36.57
2023-05-11T11:47:23.810Z,36.24
2023-05-11T11:49:54.367Z,36.39
2023-05-11T11:52:30.085Z,36.04
2023-05-11T11:58:47.216Z,35.64
2023-05-11T12:01:27.035Z,35.32
2023-05-11T12:04:06.612Z,35.37
2023-05-11T12:06:41.919Z,35.37
2023-05-11T12:09:10.624Z,35.41
2023-05-11T12:11:44.918Z,35.11
2023-05-11T12:14:15.857Z,34.74
2023-05-11T12:17:02.354Z,34.33
2023-05-11T12:19:45.485Z,33.94
2023-05-11T12:22:23.218Z,34.01
2023-05-11T12:24:59.507Z,34.02
2023-05-11T12:27:31.534Z,33.84
2023-05-11T12:30:32.689Z,33.88
2023-05-11T12:33:15.412Z,33.02
2023-05-11T12:35:44.562Z,32.65
2023-05-11T12:38:14.361Z,32.12
2023-05-11T12:41:08.391Z,31.60
2023-05-11T12:43:58.729Z,31.27
2023-05-11T12:46:30.499Z,31.53
2023-05-11T12:49:01.371Z,31.73
2023-05-11T12:51:50.522Z,32.86
2023-05-11T12:54:40.644Z,32.74
2023-05-11T12:57:25.447Z,32.85
2023-05-11T13:00:10.730Z,33.21
2023-05-11T13:02:53.074Z,32.38
2023-05-11T13:05:28.553Z,32.38
2023-05-11T13:08:20.560Z,32.17
2023-05-11T13:10:53.747Z,31.81
2023-05-11T13:13:29.169Z,32.37
2023-05-11T13:15:57.699Z,32.73
2023-05-11T13:18:26.090Z,32.90
2023-05-11T13:21:09.963Z,32.37
2023-05-11T13:23:49.914Z,31.73
2023-05-11T13:26:33.236Z,31.74
2023-05-11T13:29:28.914Z,31.94
2023-05-11T13:32:20.347Z,32.16
2023-05-11T13:34:50.205Z,32.32
2023-05-11T13:37:18.961Z,31.95
2023-05-11T13:39:55.893Z,32.11
2023-05-11T13:42:39.127Z,32.01
2023-05-11T13:45:10.963Z,31.91
2023-05-11T13:47:44.009Z,31.58
2023-05-11T13:50:17.015Z,31.07
2023-05-11T13:52:48.165Z,29.20
2023-05-11T13:55:17.203Z,27.68
2023-05-11T13:57:47.533Z,27.15
2023-05-11T14:00:23.704Z,27.07
2023-05-11T14:02:54.179Z,27.22
2023-05-11T14:05:27.468Z,27.57
2023-05-11T14:07:56.042Z,28.36
2023-05-11T14:10:27.549Z,28.95
2023-05-11T14:12:57.311Z,29.52
2023-05-11T14:15:27.437Z,29.82
2023-05-11T14:18:04.072Z,29.01
2023-05-11T14:20:38.716Z,28.01
2023-05-11T14:23:09.056Z,26.97
2023-05-11T14:25:37.930Z,26.41
2023-05-11T14:28:06.941Z,26.41
2023-05-11T14:30:36.443Z,27.75
2023-05-11T14:33:04.956Z,28.19
2023-05-11T14:35:33.790Z,28.77
2023-05-11T14:38:03.133Z,28.81
2023-05-11T14:40:32.957Z,27.76
2023-05-11T14:43:02.657Z,27.19
2023-05-11T14:45:31.205Z,27.07
2023-05-11T14:48:00.870Z,26.59
2023-05-11T14:50:29.220Z,26.27
2023-05-11T14:52:59.289Z,26.34
2023-05-11T14:55:27.757Z,26.07
2023-05-11T14:57:56.589Z,27.00
2023-05-11T15:00:24.867Z,27.81
2023-05-11T15:02:56.111Z,28.37
2023-05-11T15:05:25.360Z,28.73
2023-05-11T15:07:55.676Z,29.65
2023-05-11T15:10:25.794Z,30.71
2023-05-11T15:12:56.757Z,31.51
2023-05-11T15:15:25.957Z,31.96
2023-05-11T15:17:54.069Z,32.39
2023-05-11T15:20:25.032Z,33.11
2023-05-11T15:22:53.089Z,33.19
2023-05-11T15:25:21.556Z,33.66
2023-05-11T15:27:49.902Z,34.13
2023-05-11T15:30:18.733Z,34.46
2023-05-11T15:32:47.014Z,33.83
2023-05-11T15:35:16.988Z,32.20
2023-05-11T15:37:45.827Z,30.99
2023-05-11T15:40:16.395Z,30.75
2023-05-11T15:42:44.628Z,31.80
2023-05-11T15:45:12.726Z,32.36
2023-05-11T15:47:40.948Z,32.87
2023-05-11T15:50:09.425Z,33.39
2023-05-11T15:52:37.455Z,33.69
2023-05-11T15:55:06.571Z,33.55
2023-05-11T15:57:36.501Z,33.70
2023-05-11T16:00:06.590Z,34.04
2023-05-11T16:02:36.295Z,34.47
2023-05-11T16:05:04.706Z,34.10
2023-05-11T16:07:33.896Z,34.13
2023-05-11T16:10:02.003Z,34.25
2023-05-11T16:12:30.422Z,34.50
2023-05-11T16:14:59.080Z,34.49
2023-05-11T16:17:31.257Z,34.79
2023-05-11T16:20:03.602Z,35.50
2023-05-11T16:22:32.719Z,35.88
2023-05-11T16:25:02.912Z,36.35
2023-05-11T16:27:32.288Z,36.53
2023-05-11T16:30:06.006Z,36.76
2023-05-11T16:32:44.147Z,36.33
2023-05-11T16:35:13.207Z,36.52
2023-05-11T16:37:42.361Z,36.80
2023-05-11T16:40:11.673Z,37.28
2023-05-11T16:42:42.514Z,37.07
2023-05-11T16:45:12.789Z,37.44
2023-05-11T16:47:45.823Z,37.60
2023-05-11T16:50:15.725Z,37.73
2023-05-11T16:52:44.316Z,38.19
2023-05-11T16:55:18.135Z,38.59
2023-05-11T16:57:47.466Z,38.90
2023-05-11T17:00:16.375Z,39.24
2023-05-11T17:02:45.044Z,39.45
2023-05-11T17:05:15.327Z,39.61
2023-05-11T17:07:46.295Z,40.02
2023-05-11T17:10:20.421Z,39.96
2023-05-11T17:12:56.804Z,39.92
2023-05-11T17:15:26.758Z,39.88
2023-05-11T17:17:55.207Z,40.34
2023-05-11T17:20:40.252Z,40.55
2023-05-11T17:23:08.386Z,40.81
2023-05-11T17:25:38.023Z,41.49
2023-05-11T17:28:06.608Z,41.76
2023-05-11T17:30:47.181Z,42.06
2023-05-11T17:33:17.491Z,42.62
2023-05-11T17:35:45.815Z,42.89
2023-05-11T17:38:14.251Z,42.82
2023-05-11T17:40:42.479Z,42.37
2023-05-11T17:43:12.740Z,42.63
2023-05-11T17:45:47.178Z,42.75
2023-05-11T17:48:15.745Z,42.68
2023-05-11T17:50:44.342Z,42.88
2023-05-11T17:53:13.540Z,43.15
2023-05-11T17:55:43.466Z,43.01
2023-05-11T17:58:12.026Z,43.15
2023-05-11T18:00:40.739Z,43.64
2023-05-11T18:03:09.200Z,44.11
2023-05-11T18:05:48.705Z,44.28
2023-05-11T18:08:17.606Z,44.30
2023-05-11T18:10:45.826Z,44.84
2023-05-11T18:13:17.238Z,44.96
2023-05-11T18:15:47.537Z,44.96
2023-05-11T18:18:16.294Z,45.20
2023-05-11T18:20:47.031Z,46.09
2023-05-11T18:23:16.689Z,46.40
2023-05-11T18:25:45.276Z,46.25
2023-05-11T18:28:13.354Z,46.68
2023-05-11T18:30:41.340Z,47.12
2023-05-11T18:33:09.520Z,47.12
2023-05-11T18:35:39.131Z,47.98
2023-05-11T18:38:08.038Z,48.17
2023-05-11T18:40:36.252Z,48.99
2023-05-11T18:43:04.543Z,49.61
2023-05-11T18:45:35.168Z,49.80
2023-05-11T18:48:04.745Z,49.98
2023-05-11T18:50:32.888Z,50.84
2023-05-11T18:53:02.203Z,52.12
2023-05-11T18:55:35.384Z,51.39
2023-05-11T18:58:09.247Z,52.15
2023-05-11T19:00:39.778Z,52.99
2023-05-11T19:03:10.398Z,53.12
2023-05-11T19:05:38.710Z,54.39
2023-05-11T19:08:07.314Z,56.72
2023-05-11T19:10:39.701Z,58.18
2023-05-11T19:13:08.823Z,59.66
2023-05-11T19:15:37.910Z,58.95
2023-05-11T19:18:08.036Z,61.76
2023-05-11T19:20:37.624Z,59.34
2023-05-11T19:23:06.820Z,59.90
2023-05-11T19:25:34.974Z,62.40
2023-05-11T19:28:03.464Z,61.86
2023-05-11T19:30:31.648Z,62.61
2023-05-11T19:32:59.845Z,61.91
2023-05-11T19:35:28.674Z,62.14
2023-05-11T19:37:56.790Z,67.01
2023-05-11T19:42:56.443Z,66.51
2023-05-11T19:45:24.900Z,67.05
2023-05-11T19:47:53.298Z,65.53
2023-05-11T19:50:24.685Z,67.40
2023-05-11T19:52:53.093Z,68.73
2023-05-11T19:55:22.667Z,67.87
2023-05-11T19:57:51.907Z,70.79
2023-05-11T20:00:25.636Z,71.68
2023-05-11T20:02:54.433Z,70.89
2023-05-11T20:05:22.724Z,73.58
2023-05-11T20:07:50.897Z,72.15
2023-05-11T20:10:19.106Z,70.20
2023-05-11T20:12:48.358Z,70.47
2023-05-11T20:15:16.460Z,72.06
2023-05-11T20:17:44.761Z,75.06
2023-05-11T20:20:13.490Z,77.59
2023-05-11T20:22:41.723Z,78.76
2023-05-11T20:25:17.817Z,79.19
2023-05-11T20:27:47.027Z,80.90
2023-05-11T20:30:15.840Z,81.68
2023-05-11T20:35:15.221Z,83.86
2023-05-11T20:37:43.204Z,84.67
2023-05-11T20:40:12.958Z,84.66
2023-05-11T20:42:41.359Z,85.87
2023-05-11T20:45:09.772Z,87.01
2023-05-11T20:47:38.064Z,87.12
2023-05-11T20:50:08.649Z,87.14
2023-05-11T20:52:37.469Z,88.14
2023-05-11T20:55:07.274Z,88.24
2023-05-11T20:57:35.446Z,88.45
2023-05-11T21:00:07.459Z,88.61
2023-05-11T21:02:36.136Z,89.89
2023-05-11T21:05:04.519Z,90.53
2023-05-11T21:07:32.642Z,92.58
2023-05-11T21:10:02.121Z,93.03
2023-05-11T21:12:30.303Z,93.84
2023-05-11T21:14:58.356Z,94.97
2023-05-11T21:17:26.331Z,95.87
2023-05-11T21:19:54.451Z,96.08
2023-05-11T21:22:22.605Z,96.44
2023-05-11T21:24:50.692Z,96.77
2023-05-11T21:27:18.796Z,97.31
2023-05-11T21:29:46.814Z,99.00
2023-05-11T21:32:15.074Z,97.97
2023-05-11T21:34:43.962Z,99.46
2023-05-11T21:37:14.691Z,99.92
2023-05-11T21:39:42.586Z,100.00
2023-05-11T21:42:10.541Z,100.00
2023-05-11T21:44:38.754Z,100.00
2023-05-11T21:47:07.471Z,100.00
2023-05-11T21:49:36.908Z,100.00
2023-05-11T21:52:05.986Z,100.00
2023-05-11T21:54:34.587Z,100.00
2023-05-11T21:57:03.764Z,100.00
2023-05-11T21:59:31.887Z,100.00
2023-05-11T22:01:59.951Z,100.00
2023-05-11T22:04:28.120Z,100.00
2023-05-11T22:07:01.485Z,100.00
2023-05-11T22:09:31.517Z,100.00
2023-05-11T22:11:59.784Z,100.00
2023-05-11T22:14:27.773Z,100.00
2023-05-11T22:16:55.876Z,99.73
2023-05-11T22:19:23.960Z,99.99
2023-05-11T22:21:52.235Z,100.00
2023-05-11T22:24:21.670Z,100.00
2023-05-11T22:26:49.942Z,100.00
2023-05-11T22:29:17.906Z,99.55
2023-05-11T22:31:46.448Z,99.39
2023-05-11T22:34:15.083Z,98.85
2023-05-11T22:36:43.186Z,99.79
2023-05-11T22:39:11.554Z,100.00
2023-05-11T22:41:40.807Z,100.00
2023-05-11T22:44:08.967Z,100.00
2023-05-11T22:46:37.331Z,100.00
2023-05-11T22:49:06.176Z,100.00
2023-05-11T22:51:34.421Z,100.00
2023-05-11T22:54:02.384Z,100.00
2023-05-11T22:56:31.332Z,100.00
2023-05-11T22:59:01.874Z,100.00
2023-05-11T23:01:30.287Z,100.00
2023-05-11T23:03:58.450Z,100.00
2023-05-11T23:06:26.577Z,100.00
2023-05-11T23:08:54.608Z,100.00
2023-05-11T23:11:23.129Z,100.00
2023-05-11T23:13:51.120Z,100.00
2023-05-11T23:16:19.658Z,100.00
2023-05-11T23:18:48.044Z,100.00
2023-05-11T23:21:16.205Z,100.00
2023-05-11T23:23:44.287Z,100.00
2023-05-11T23:26:12.652Z,100.00
2023-05-11T23:28:41.435Z,100.00
2023-05-11T23:31:09.911Z,100.00
2023-05-11T23:33:38.020Z,100.00
2023-05-11T23:36:06.332Z,100.00
2023-05-11T23:38:34.237Z,100.00
2023-05-11T23:41:02.813Z,100.00
2023-05-11T23:43:31.490Z,100.00
2023-05-11T23:45:59.427Z,100.00
2023-05-11T23:48:27.348Z,100.00
2023-05-11T23:50:55.511Z,100.00
2023-05-11T23:53:23.491Z,100.00
2023-05-11T23:55:51.521Z,100.00
2023-05-11T23:58:19.483Z,100.00
